sensor_id;sensor_type;location;lat;lon;timestamp;P1;durP1;ratioP1;P2;durP2;ratioP2
9007;SDS011;62813;51.424;6.762;2023-03-01T00:01:16;7.60;;;5.33;;
9007;SDS011;62813;51.424;6.762;2023-03-01T00:03:45;8.10;;;5.60;;
9007;SDS011;62813;51.424;6.762;2023-03-01T00:06:12;10.30;;;6.13;;
9007;SDS011;62813;51.424;6.762;2023-03-01T00:08:39;10.63;;;5.07;;
9007;SDS011;62813;51.424;6.762;2023-03-01T00:13:40;7.80;;;5.47;;
9007;SDS011;62813;51.424;6.762;2023-03-01T00:16:10;8.73;;;6.10;;
9007;SDS011;62813;51.424;6.762;2023-03-01T00:18:39;9.57;;;5.87;;
9007;SDS011;62813;51.424;6.762;2023-03-01T00:21:06;10.80;;;6.30;;
9007;SDS011;62813;51.424;6.762;2023-03-01T00:23:35;8.20;;;5.67;;
9007;SDS011;62813;51.424;6.762;2023-03-01T00:26:05;9.13;;;6.37;;
9007;SDS011;62813;51.424;6.762;2023-03-01T00:28:34;8.97;;;5.77;;
9007;SDS011;62813;51.424;6.762;2023-03-01T00:31:20;11.33;;;5.93;;
9007;SDS011;62813;51.424;6.762;2023-03-01T00:33:48;9.73;;;6.00;;
9007;SDS011;62813;51.424;6.762;2023-03-01T00:36:18;7.67;;;5.13;;
9007;SDS011;62813;51.424;6.762;2023-03-01T00:38:45;10.70;;;6.50;;
9007;SDS011;62813;51.424;6.762;2023-03-01T00:41:13;8.47;;;5.67;;
9007;SDS011;62813;51.424;6.762;2023-03-01T00:43:41;9.57;;;6.03;;
9007;SDS011;62813;51.424;6.762;2023-03-01T00:46:09;7.97;;;5.50;;
9007;SDS011;62813;51.424;6.762;2023-03-01T00:48:38;11.13;;;6.70;;
9007;SDS011;62813;51.424;6.762;2023-03-01T00:51:06;7.83;;;5.70;;
9007;SDS011;62813;51.424;6.762;2023-03-01T00:53:33;8.97;;;6.17;;
9007;SDS011;62813;51.424;6.762;2023-03-01T00:56:00;12.70;;;5.97;;
9007;SDS011;62813;51.424;6.762;2023-03-01T00:58:27;8.90;;;5.77;;
9007;SDS011;62813;51.424;6.762;2023-03-01T01:00:54;9.73;;;6.33;;
9007;SDS011;62813;51.424;6.762;2023-03-01T01:03:21;8.10;;;6.33;;
9007;SDS011;62813;51.424;6.762;2023-03-01T01:05:49;9.37;;;5.83;;
9007;SDS011;62813;51.424;6.762;2023-03-01T01:08:16;10.13;;;6.27;;
9007;SDS011;62813;51.424;6.762;2023-03-01T01:10:43;9.27;;;6.43;;
9007;SDS011;62813;51.424;6.762;2023-03-01T01:13:10;12.63;;;6.93;;
9007;SDS011;62813;51.424;6.762;2023-03-01T01:15:37;8.30;;;5.83;;
9007;SDS011;62813;51.424;6.762;2023-03-01T01:18:04;8.70;;;6.47;;
9007;SDS011;62813;51.424;6.762;2023-03-01T01:20:31;8.10;;;6.03;;
9007;SDS011;62813;51.424;6.762;2023-03-01T01:22:58;9.23;;;6.07;;
9007;SDS011;62813;51.424;6.762;2023-03-01T01:25:25;12.13;;;6.43;;
9007;SDS011;62813;51.424;6.762;2023-03-01T01:27:52;8.47;;;6.10;;
9007;SDS011;62813;51.424;6.762;2023-03-01T01:30:19;12.17;;;6.37;;
9007;SDS011;62813;51.424;6.762;2023-03-01T01:32:45;9.20;;;6.67;;
9007;SDS011;62813;51.424;6.762;2023-03-01T01:35:12;8.83;;;5.87;;
9007;SDS011;62813;51.424;6.762;2023-03-01T01:37:38;7.70;;;5.80;;
9007;SDS011;62813;51.424;6.762;2023-03-01T01:40:05;12.30;;;6.57;;
9007;SDS011;62813;51.424;6.762;2023-03-01T01:42:32;7.90;;;5.70;;
9007;SDS011;62813;51.424;6.762;2023-03-01T01:47:50;8.80;;;6.00;;
9007;SDS011;62813;51.424;6.762;2023-03-01T01:50:18;8.70;;;6.23;;
9007;SDS011;62813;51.424;6.762;2023-03-01T01:52:45;10.47;;;6.33;;
9007;SDS011;62813;51.424;6.762;2023-03-01T01:55:20;9.40;;;6.57;;
9007;SDS011;62813;51.424;6.762;2023-03-01T01:57:51;12.10;;;7.30;;
9007;SDS011;62813;51.424;6.762;2023-03-01T02:00:22;9.37;;;6.60;;
9007;SDS011;62813;51.424;6.762;2023-03-01T02:02:52;9.63;;;6.10;;
9007;SDS011;62813;51.424;6.762;2023-03-01T02:08:10;9.50;;;6.47;;
9007;SDS011;62813;51.424;6.762;2023-03-01T02:10:38;9.67;;;5.97;;
9007;SDS011;62813;51.424;6.762;2023-03-01T02:13:06;11.03;;;6.70;;
9007;SDS011;62813;51.424;6.762;2023-03-01T02:15:34;12.17;;;6.47;;
9007;SDS011;62813;51.424;6.762;2023-03-01T02:18:02;9.20;;;6.47;;
9007;SDS011;62813;51.424;6.762;2023-03-01T02:23:05;10.33;;;6.33;;
9007;SDS011;62813;51.424;6.762;2023-03-01T02:30:40;9.00;;;5.60;;
9007;SDS011;62813;51.424;6.762;2023-03-01T02:33:28;8.33;;;6.17;;
9007;SDS011;62813;51.424;6.762;2023-03-01T02:36:00;12.27;;;6.17;;
9007;SDS011;62813;51.424;6.762;2023-03-01T02:38:30;8.63;;;6.93;;
9007;SDS011;62813;51.424;6.762;2023-03-01T02:40:58;10.93;;;6.93;;
9007;SDS011;62813;51.424;6.762;2023-03-01T02:43:28;15.33;;;6.17;;
9007;SDS011;62813;51.424;6.762;2023-03-01T02:45:59;10.90;;;6.20;;
9007;SDS011;62813;51.424;6.762;2023-03-01T02:48:41;11.10;;;7.20;;
9007;SDS011;62813;51.424;6.762;2023-03-01T02:56:39;8.80;;;6.60;;
9007;SDS011;62813;51.424;6.762;2023-03-01T02:59:07;12.80;;;7.50;;
9007;SDS011;62813;51.424;6.762;2023-03-01T03:01:35;9.03;;;7.30;;
9007;SDS011;62813;51.424;6.762;2023-03-01T03:04:06;8.87;;;6.73;;
9007;SDS011;62813;51.424;6.762;2023-03-01T03:06:33;9.97;;;6.20;;
9007;SDS011;62813;51.424;6.762;2023-03-01T03:09:01;9.53;;;7.47;;
9007;SDS011;62813;51.424;6.762;2023-03-01T03:11:28;11.87;;;7.43;;
9007;SDS011;62813;51.424;6.762;2023-03-01T03:13:55;8.53;;;6.83;;
9007;SDS011;62813;51.424;6.762;2023-03-01T03:16:22;9.07;;;6.47;;
9007;SDS011;62813;51.424;6.762;2023-03-01T03:18:48;11.73;;;7.43;;
9007;SDS011;62813;51.424;6.762;2023-03-01T03:21:15;12.43;;;7.73;;
9007;SDS011;62813;51.424;6.762;2023-03-01T03:23:43;10.07;;;6.10;;
9007;SDS011;62813;51.424;6.762;2023-03-01T03:26:10;9.70;;;6.67;;
9007;SDS011;62813;51.424;6.762;2023-03-01T03:28:41;8.37;;;6.13;;
9007;SDS011;62813;51.424;6.762;2023-03-01T03:31:07;14.53;;;7.03;;
9007;SDS011;62813;51.424;6.762;2023-03-01T03:33:34;9.30;;;6.73;;
9007;SDS011;62813;51.424;6.762;2023-03-01T03:36:01;9.27;;;6.33;;
9007;SDS011;62813;51.424;6.762;2023-03-01T03:38:28;8.40;;;6.40;;
9007;SDS011;62813;51.424;6.762;2023-03-01T03:41:02;10.60;;;6.60;;
9007;SDS011;62813;51.424;6.762;2023-03-01T03:43:31;9.97;;;6.67;;
9007;SDS011;62813;51.424;6.762;2023-03-01T03:45:59;9.50;;;7.27;;
9007;SDS011;62813;51.424;6.762;2023-03-01T03:48:26;10.77;;;6.97;;
9007;SDS011;62813;51.424;6.762;2023-03-01T03:50:53;11.93;;;7.17;;
9007;SDS011;62813;51.424;6.762;2023-03-01T03:53:22;9.53;;;6.47;;
9007;SDS011;62813;51.424;6.762;2023-03-01T03:55:50;8.73;;;6.87;;
9007;SDS011;62813;51.424;6.762;2023-03-01T03:58:18;12.73;;;6.90;;
9007;SDS011;62813;51.424;6.762;2023-03-01T04:00:47;8.60;;;6.53;;
9007;SDS011;62813;51.424;6.762;2023-03-01T04:03:15;12.23;;;7.40;;
9007;SDS011;62813;51.424;6.762;2023-03-01T04:05:44;13.97;;;6.87;;
9007;SDS011;62813;51.424;6.762;2023-03-01T04:08:12;8.33;;;6.27;;
9007;SDS011;62813;51.424;6.762;2023-03-01T04:10:41;14.20;;;7.07;;
9007;SDS011;62813;51.424;6.762;2023-03-01T04:13:11;8.47;;;6.40;;
9007;SDS011;62813;51.424;6.762;2023-03-01T04:15:39;11.73;;;7.20;;
9007;SDS011;62813;51.424;6.762;2023-03-01T04:18:06;10.27;;;6.90;;
9007;SDS011;62813;51.424;6.762;2023-03-01T04:20:38;8.33;;;6.47;;
9007;SDS011;62813;51.424;6.762;2023-03-01T04:23:06;8.87;;;6.70;;
9007;SDS011;62813;51.424;6.762;2023-03-01T04:25:50;11.60;;;6.83;;
9007;SDS011;62813;51.424;6.762;2023-03-01T04:28:24;10.07;;;6.77;;
9007;SDS011;62813;51.424;6.762;2023-03-01T04:30:56;15.17;;;6.93;;
9007;SDS011;62813;51.424;6.762;2023-03-01T04:33:24;9.40;;;6.97;;
9007;SDS011;62813;51.424;6.762;2023-03-01T04:35:51;10.90;;;6.90;;
9007;SDS011;62813;51.424;6.762;2023-03-01T04:38:18;8.47;;;6.63;;
9007;SDS011;62813;51.424;6.762;2023-03-01T04:40:45;11.27;;;7.40;;
9007;SDS011;62813;51.424;6.762;2023-03-01T04:43:12;11.73;;;8.33;;
9007;SDS011;62813;51.424;6.762;2023-03-01T04:45:41;13.43;;;7.23;;
9007;SDS011;62813;51.424;6.762;2023-03-01T04:48:08;15.10;;;8.57;;
9007;SDS011;62813;51.424;6.762;2023-03-01T04:50:35;10.83;;;7.50;;
9007;SDS011;62813;51.424;6.762;2023-03-01T04:53:02;12.93;;;7.47;;
9007;SDS011;62813;51.424;6.762;2023-03-01T04:55:29;12.97;;;7.60;;
9007;SDS011;62813;51.424;6.762;2023-03-01T04:57:57;10.50;;;7.23;;
9007;SDS011;62813;51.424;6.762;2023-03-01T05:00:24;13.70;;;7.63;;
9007;SDS011;62813;51.424;6.762;2023-03-01T05:05:27;11.67;;;7.77;;
9007;SDS011;62813;51.424;6.762;2023-03-01T05:07:56;11.23;;;7.97;;
9007;SDS011;62813;51.424;6.762;2023-03-01T05:10:25;11.67;;;7.63;;
9007;SDS011;62813;51.424;6.762;2023-03-01T05:12:55;11.07;;;7.40;;
9007;SDS011;62813;51.424;6.762;2023-03-01T05:15:24;17.67;;;7.30;;
9007;SDS011;62813;51.424;6.762;2023-03-01T05:17:55;12.67;;;7.30;;
9007;SDS011;62813;51.424;6.762;2023-03-01T05:20:25;10.37;;;7.23;;
9007;SDS011;62813;51.424;6.762;2023-03-01T05:22:54;10.57;;;7.10;;
9007;SDS011;62813;51.424;6.762;2023-03-01T05:25:22;12.10;;;7.57;;
9007;SDS011;62813;51.424;6.762;2023-03-01T05:27:49;11.17;;;7.47;;
9007;SDS011;62813;51.424;6.762;2023-03-01T05:30:16;13.93;;;8.37;;
9007;SDS011;62813;51.424;6.762;2023-03-01T05:32:45;12.57;;;8.47;;
9007;SDS011;62813;51.424;6.762;2023-03-01T05:35:13;10.50;;;7.97;;
9007;SDS011;62813;51.424;6.762;2023-03-01T05:37:43;11.20;;;7.90;;
9007;SDS011;62813;51.424;6.762;2023-03-01T05:40:14;10.83;;;7.80;;
9007;SDS011;62813;51.424;6.762;2023-03-01T05:42:43;15.73;;;8.00;;
9007;SDS011;62813;51.424;6.762;2023-03-01T05:45:11;11.53;;;7.70;;
9007;SDS011;62813;51.424;6.762;2023-03-01T05:47:40;10.03;;;7.53;;
9007;SDS011;62813;51.424;6.762;2023-03-01T05:50:11;10.43;;;7.40;;
9007;SDS011;62813;51.424;6.762;2023-03-01T05:52:39;11.30;;;7.20;;
9007;SDS011;62813;51.424;6.762;2023-03-01T05:55:05;10.47;;;7.47;;
9007;SDS011;62813;51.424;6.762;2023-03-01T05:57:33;11.40;;;7.77;;
9007;SDS011;62813;51.424;6.762;2023-03-01T05:59:59;13.10;;;7.97;;
9007;SDS011;62813;51.424;6.762;2023-03-01T06:02:26;10.63;;;7.40;;
9007;SDS011;62813;51.424;6.762;2023-03-01T06:04:53;14.63;;;7.47;;
9007;SDS011;62813;51.424;6.762;2023-03-01T06:07:20;12.07;;;7.77;;
9007;SDS011;62813;51.424;6.762;2023-03-01T06:09:47;11.70;;;7.33;;
9007;SDS011;62813;51.424;6.762;2023-03-01T06:12:13;12.70;;;8.07;;
9007;SDS011;62813;51.424;6.762;2023-03-01T06:14:40;14.20;;;8.00;;
9007;SDS011;62813;51.424;6.762;2023-03-01T06:17:06;9.87;;;7.93;;
9007;SDS011;62813;51.424;6.762;2023-03-01T06:19:33;12.17;;;8.07;;
9007;SDS011;62813;51.424;6.762;2023-03-01T06:21:59;9.40;;;6.80;;
9007;SDS011;62813;51.424;6.762;2023-03-01T06:24:26;11.33;;;6.77;;
9007;SDS011;62813;51.424;6.762;2023-03-01T06:26:55;14.93;;;7.00;;
9007;SDS011;62813;51.424;6.762;2023-03-01T06:29:22;10.30;;;7.17;;
9007;SDS011;62813;51.424;6.762;2023-03-01T06:31:48;12.67;;;7.63;;
9007;SDS011;62813;51.424;6.762;2023-03-01T06:34:15;12.77;;;8.03;;
9007;SDS011;62813;51.424;6.762;2023-03-01T06:36:42;13.93;;;7.77;;
9007;SDS011;62813;51.424;6.762;2023-03-01T06:39:08;13.83;;;8.07;;
9007;SDS011;62813;51.424;6.762;2023-03-01T06:41:35;15.40;;;7.90;;
9007;SDS011;62813;51.424;6.762;2023-03-01T06:44:01;13.17;;;7.53;;
9007;SDS011;62813;51.424;6.762;2023-03-01T06:46:28;15.17;;;7.30;;
9007;SDS011;62813;51.424;6.762;2023-03-01T06:48:56;16.20;;;8.10;;
9007;SDS011;62813;51.424;6.762;2023-03-01T06:51:22;12.13;;;8.17;;
9007;SDS011;62813;51.424;6.762;2023-03-01T06:53:49;10.30;;;7.17;;
9007;SDS011;62813;51.424;6.762;2023-03-01T06:56:15;10.73;;;7.27;;
9007;SDS011;62813;51.424;6.762;2023-03-01T06:58:42;10.73;;;8.07;;
9007;SDS011;62813;51.424;6.762;2023-03-01T07:01:08;10.50;;;7.73;;
9007;SDS011;62813;51.424;6.762;2023-03-01T07:03:35;10.00;;;7.07;;
9007;SDS011;62813;51.424;6.762;2023-03-01T07:06:01;12.30;;;6.97;;
9007;SDS011;62813;51.424;6.762;2023-03-01T07:08:28;9.47;;;7.27;;
9007;SDS011;62813;51.424;6.762;2023-03-01T07:10:56;10.23;;;7.67;;
9007;SDS011;62813;51.424;6.762;2023-03-01T07:13:23;12.23;;;7.97;;
9007;SDS011;62813;51.424;6.762;2023-03-01T07:15:50;10.17;;;7.50;;
9007;SDS011;62813;51.424;6.762;2023-03-01T07:18:16;11.13;;;7.27;;
9007;SDS011;62813;51.424;6.762;2023-03-01T07:20:43;14.53;;;7.57;;
9007;SDS011;62813;51.424;6.762;2023-03-01T07:23:09;10.83;;;7.80;;
9007;SDS011;62813;51.424;6.762;2023-03-01T07:25:36;10.50;;;8.07;;
9007;SDS011;62813;51.424;6.762;2023-03-01T07:28:03;11.13;;;7.90;;
9007;SDS011;62813;51.424;6.762;2023-03-01T07:30:29;14.13;;;7.60;;
9007;SDS011;62813;51.424;6.762;2023-03-01T07:32:57;13.10;;;7.60;;
9007;SDS011;62813;51.424;6.762;2023-03-01T07:35:27;13.50;;;7.50;;
9007;SDS011;62813;51.424;6.762;2023-03-01T07:37:54;13.03;;;8.53;;
9007;SDS011;62813;51.424;6.762;2023-03-01T07:40:21;11.50;;;7.90;;
9007;SDS011;62813;51.424;6.762;2023-03-01T07:42:48;12.27;;;7.90;;
9007;SDS011;62813;51.424;6.762;2023-03-01T07:45:15;16.37;;;7.90;;
9007;SDS011;62813;51.424;6.762;2023-03-01T07:47:41;12.37;;;8.30;;
9007;SDS011;62813;51.424;6.762;2023-03-01T07:50:08;10.47;;;7.33;;
9007;SDS011;62813;51.424;6.762;2023-03-01T07:52:35;10.17;;;7.77;;
9007;SDS011;62813;51.424;6.762;2023-03-01T07:55:02;14.40;;;7.77;;
9007;SDS011;62813;51.424;6.762;2023-03-01T07:57:28;15.70;;;8.33;;
9007;SDS011;62813;51.424;6.762;2023-03-01T07:59:55;13.60;;;7.43;;
9007;SDS011;62813;51.424;6.762;2023-03-01T08:02:22;16.57;;;8.63;;
9007;SDS011;62813;51.424;6.762;2023-03-01T08:04:48;15.27;;;8.40;;
9007;SDS011;62813;51.424;6.762;2023-03-01T08:07:15;14.10;;;8.10;;
9007;SDS011;62813;51.424;6.762;2023-03-01T08:09:41;14.93;;;8.57;;
9007;SDS011;62813;51.424;6.762;2023-03-01T08:12:08;11.17;;;8.47;;
9007;SDS011;62813;51.424;6.762;2023-03-01T08:14:35;11.67;;;7.43;;
9007;SDS011;62813;51.424;6.762;2023-03-01T08:17:01;13.23;;;8.10;;
9007;SDS011;62813;51.424;6.762;2023-03-01T08:19:29;18.23;;;8.17;;
9007;SDS011;62813;51.424;6.762;2023-03-01T08:24:26;13.67;;;7.70;;
9007;SDS011;62813;51.424;6.762;2023-03-01T08:26:52;12.70;;;8.30;;
9007;SDS011;62813;51.424;6.762;2023-03-01T08:29:19;13.43;;;8.10;;
9007;SDS011;62813;51.424;6.762;2023-03-01T08:31:46;10.67;;;7.73;;
9007;SDS011;62813;51.424;6.762;2023-03-01T08:34:15;13.00;;;8.00;;
9007;SDS011;62813;51.424;6.762;2023-03-01T08:36:44;12.77;;;8.17;;
9007;SDS011;62813;51.424;6.762;2023-03-01T08:39:13;16.13;;;8.80;;
9007;SDS011;62813;51.424;6.762;2023-03-01T08:41:41;14.10;;;8.13;;
9007;SDS011;62813;51.424;6.762;2023-03-01T08:44:09;11.63;;;8.20;;
9007;SDS011;62813;51.424;6.762;2023-03-01T08:46:38;8.97;;;7.30;;
9007;SDS011;62813;51.424;6.762;2023-03-01T08:49:08;11.37;;;7.23;;
9007;SDS011;62813;51.424;6.762;2023-03-01T08:51:37;11.73;;;7.90;;
9007;SDS011;62813;51.424;6.762;2023-03-01T08:54:15;10.83;;;7.63;;
9007;SDS011;62813;51.424;6.762;2023-03-01T08:56:44;13.13;;;7.13;;
9007;SDS011;62813;51.424;6.762;2023-03-01T08:59:11;11.50;;;7.40;;
9007;SDS011;62813;51.424;6.762;2023-03-01T09:01:39;10.53;;;7.60;;
9007;SDS011;62813;51.424;6.762;2023-03-01T09:04:18;13.93;;;7.67;;
9007;SDS011;62813;51.424;6.762;2023-03-01T09:06:54;13.63;;;8.50;;
9007;SDS011;62813;51.424;6.762;2023-03-01T09:09:21;10.93;;;7.50;;
9007;SDS011;62813;51.424;6.762;2023-03-01T09:11:47;15.53;;;8.00;;
9007;SDS011;62813;51.424;6.762;2023-03-01T09:14:16;11.20;;;7.53;;
9007;SDS011;62813;51.424;6.762;2023-03-01T09:16:43;12.23;;;7.13;;
9007;SDS011;62813;51.424;6.762;2023-03-01T09:19:10;12.00;;;7.20;;
9007;SDS011;62813;51.424;6.762;2023-03-01T09:21:37;10.83;;;7.23;;
9007;SDS011;62813;51.424;6.762;2023-03-01T09:24:15;12.00;;;7.53;;
9007;SDS011;62813;51.424;6.762;2023-03-01T09:26:42;11.57;;;7.40;;
9007;SDS011;62813;51.424;6.762;2023-03-01T09:29:09;14.70;;;7.30;;
9007;SDS011;62813;51.424;6.762;2023-03-01T09:31:36;9.73;;;7.10;;
9007;SDS011;62813;51.424;6.762;2023-03-01T09:34:03;9.40;;;7.47;;
9007;SDS011;62813;51.424;6.762;2023-03-01T09:36:30;9.93;;;7.40;;
9007;SDS011;62813;51.424;6.762;2023-03-01T09:38:58;12.87;;;7.30;;
9007;SDS011;62813;51.424;6.762;2023-03-01T09:41:30;10.03;;;6.77;;
9007;SDS011;62813;51.424;6.762;2023-03-01T09:44:26;9.80;;;7.33;;
9007;SDS011;62813;51.424;6.762;2023-03-01T09:47:00;10.97;;;7.20;;
9007;SDS011;62813;51.424;6.762;2023-03-01T09:49:32;9.87;;;7.77;;
9007;SDS011;62813;51.424;6.762;2023-03-01T09:54:46;17.13;;;7.87;;
9007;SDS011;62813;51.424;6.762;2023-03-01T10:05:41;9.40;;;7.17;;
9007;SDS011;62813;51.424;6.762;2023-03-01T10:10:53;12.03;;;7.13;;
9007;SDS011;62813;51.424;6.762;2023-03-01T10:13:28;10.50;;;7.50;;
9007;SDS011;62813;51.424;6.762;2023-03-01T10:16:04;10.97;;;7.73;;
9007;SDS011;62813;51.424;6.762;2023-03-01T10:18:38;9.40;;;7.13;;
9007;SDS011;62813;51.424;6.762;2023-03-01T10:21:11;11.27;;;7.37;;
9007;SDS011;62813;51.424;6.762;2023-03-01T10:23:42;8.83;;;7.03;;
9007;SDS011;62813;51.424;6.762;2023-03-01T10:29:03;9.17;;;7.07;;
9007;SDS011;62813;51.424;6.762;2023-03-01T10:31:35;9.20;;;7.30;;
9007;SDS011;62813;51.424;6.762;2023-03-01T10:34:11;13.77;;;7.13;;
9007;SDS011;62813;51.424;6.762;2023-03-01T10:36:41;12.23;;;7.40;;
9007;SDS011;62813;51.424;6.762;2023-03-01T10:39:13;11.40;;;6.50;;
9007;SDS011;62813;51.424;6.762;2023-03-01T10:41:54;9.70;;;7.13;;
9007;SDS011;62813;51.424;6.762;2023-03-01T10:44:36;8.07;;;6.43;;
9007;SDS011;62813;51.424;6.762;2023-03-01T10:47:13;12.33;;;7.23;;
9007;SDS011;62813;51.424;6.762;2023-03-01T10:49:51;10.33;;;6.63;;
9007;SDS011;62813;51.424;6.762;2023-03-01T10:52:19;12.57;;;7.33;;
9007;SDS011;62813;51.424;6.762;2023-03-01T10:54:51;12.23;;;6.93;;
9007;SDS011;62813;51.424;6.762;2023-03-01T10:57:36;10.07;;;6.90;;
9007;SDS011;62813;51.424;6.762;2023-03-01T11:00:21;10.90;;;6.50;;
9007;SDS011;62813;51.424;6.762;2023-03-01T11:05:25;11.50;;;7.10;;
9007;SDS011;62813;51.424;6.762;2023-03-01T11:07:56;7.63;;;6.33;;
9007;SDS011;62813;51.424;6.762;2023-03-01T11:10:31;9.70;;;6.70;;
9007;SDS011;62813;51.424;6.762;2023-03-01T11:13:08;8.93;;;6.37;;
9007;SDS011;62813;51.424;6.762;2023-03-01T11:15:41;8.37;;;6.30;;
9007;SDS011;62813;51.424;6.762;2023-03-01T11:18:19;8.67;;;6.47;;
9007;SDS011;62813;51.424;6.762;2023-03-01T11:20:56;8.90;;;5.73;;
9007;SDS011;62813;51.424;6.762;2023-03-01T11:23:26;8.10;;;6.00;;
9007;SDS011;62813;51.424;6.762;2023-03-01T11:25:56;10.00;;;5.80;;
9007;SDS011;62813;51.424;6.762;2023-03-01T11:28:31;9.50;;;6.07;;
9007;SDS011;62813;51.424;6.762;2023-03-01T11:31:01;9.57;;;5.83;;
9007;SDS011;62813;51.424;6.762;2023-03-01T11:36:49;7.57;;;5.83;;
9007;SDS011;62813;51.424;6.762;2023-03-01T11:42:33;8.57;;;5.57;;
9007;SDS011;62813;51.424;6.762;2023-03-01T11:45:10;10.00;;;5.50;;
9007;SDS011;62813;51.424;6.762;2023-03-01T11:56:09;8.67;;;5.60;;
9007;SDS011;62813;51.424;6.762;2023-03-01T11:58:52;7.97;;;6.07;;
9007;SDS011;62813;51.424;6.762;2023-03-01T12:01:36;8.80;;;5.30;;
9007;SDS011;62813;51.424;6.762;2023-03-01T12:07:31;8.67;;;5.23;;
9007;SDS011;62813;51.424;6.762;2023-03-01T12:10:54;11.13;;;5.43;;
9007;SDS011;62813;51.424;6.762;2023-03-01T12:29:49;9.20;;;6.30;;
9007;SDS011;62813;51.424;6.762;2023-03-01T12:32:22;8.80;;;5.00;;
9007;SDS011;62813;51.424;6.762;2023-03-01T12:41:25;9.60;;;5.50;;
9007;SDS011;62813;51.424;6.762;2023-03-01T12:44:11;8.27;;;5.03;;
9007;SDS011;62813;51.424;6.762;2023-03-01T12:54:44;8.20;;;5.33;;
9007;SDS011;62813;51.424;6.762;2023-03-01T12:57:21;7.20;;;5.90;;
9007;SDS011;62813;51.424;6.762;2023-03-01T13:00:24;12.07;;;6.20;;
9007;SDS011;62813;51.424;6.762;2023-03-01T13:03:09;7.47;;;5.50;;
9007;SDS011;62813;51.424;6.762;2023-03-01T13:06:12;7.03;;;5.33;;
9007;SDS011;62813;51.424;6.762;2023-03-01T13:08:49;6.90;;;5.30;;
9007;SDS011;62813;51.424;6.762;2023-03-01T13:11:20;8.70;;;5.70;;
9007;SDS011;62813;51.424;6.762;2023-03-01T13:13:49;8.50;;;6.03;;
9007;SDS011;62813;51.424;6.762;2023-03-01T13:16:39;7.70;;;5.83;;
9007;SDS011;62813;51.424;6.762;2023-03-01T13:19:16;8.30;;;5.80;;
9007;SDS011;62813;51.424;6.762;2023-03-01T13:21:51;10.30;;;5.57;;
9007;SDS011;62813;51.424;6.762;2023-03-01T13:27:20;11.37;;;5.40;;
9007;SDS011;62813;51.424;6.762;2023-03-01T13:29:56;8.97;;;6.07;;
9007;SDS011;62813;51.424;6.762;2023-03-01T13:37:46;10.30;;;5.70;;
9007;SDS011;62813;51.424;6.762;2023-03-01T13:42:46;8.23;;;5.80;;
9007;SDS011;62813;51.424;6.762;2023-03-01T13:45:33;10.77;;;6.43;;
9007;SDS011;62813;51.424;6.762;2023-03-01T13:48:18;7.70;;;6.27;;
9007;SDS011;62813;51.424;6.762;2023-03-01T13:50:54;11.67;;;6.10;;
9007;SDS011;62813;51.424;6.762;2023-03-01T13:53:25;9.33;;;5.77;;
9007;SDS011;62813;51.424;6.762;2023-03-01T13:56:18;8.40;;;5.67;;
9007;SDS011;62813;51.424;6.762;2023-03-01T14:01:22;8.57;;;5.60;;
9007;SDS011;62813;51.424;6.762;2023-03-01T14:03:59;8.50;;;5.57;;
9007;SDS011;62813;51.424;6.762;2023-03-01T14:06:32;10.53;;;6.17;;
9007;SDS011;62813;51.424;6.762;2023-03-01T14:19:59;11.27;;;6.07;;
9007;SDS011;62813;51.424;6.762;2023-03-01T14:25:05;9.57;;;5.97;;
9007;SDS011;62813;51.424;6.762;2023-03-01T14:27:43;12.23;;;6.20;;
9007;SDS011;62813;51.424;6.762;2023-03-01T14:30:21;7.03;;;5.77;;
9007;SDS011;62813;51.424;6.762;2023-03-01T14:32:54;7.37;;;5.70;;
9007;SDS011;62813;51.424;6.762;2023-03-01T14:35:30;10.87;;;6.00;;
9007;SDS011;62813;51.424;6.762;2023-03-01T14:37:58;8.03;;;6.17;;
9007;SDS011;62813;51.424;6.762;2023-03-01T14:40:27;8.23;;;6.20;;
9007;SDS011;62813;51.424;6.762;2023-03-01T14:43:08;9.67;;;5.67;;
9007;SDS011;62813;51.424;6.762;2023-03-01T14:45:37;10.00;;;5.87;;
9007;SDS011;62813;51.424;6.762;2023-03-01T14:48:04;10.60;;;6.60;;
9007;SDS011;62813;51.424;6.762;2023-03-01T14:50:34;9.47;;;6.47;;
9007;SDS011;62813;51.424;6.762;2023-03-01T14:53:03;15.03;;;6.83;;
9007;SDS011;62813;51.424;6.762;2023-03-01T14:55:33;10.63;;;6.90;;
9007;SDS011;62813;51.424;6.762;2023-03-01T14:58:04;11.97;;;6.83;;
9007;SDS011;62813;51.424;6.762;2023-03-01T15:00:32;12.43;;;6.77;;
9007;SDS011;62813;51.424;6.762;2023-03-01T15:03:04;9.57;;;7.13;;
9007;SDS011;62813;51.424;6.762;2023-03-01T15:05:40;10.17;;;6.97;;
9007;SDS011;62813;51.424;6.762;2023-03-01T15:08:12;12.70;;;7.17;;
9007;SDS011;62813;51.424;6.762;2023-03-01T15:10:55;11.10;;;7.63;;
9007;SDS011;62813;51.424;6.762;2023-03-01T15:13:30;13.13;;;7.47;;
9007;SDS011;62813;51.424;6.762;2023-03-01T15:16:02;13.50;;;7.77;;
9007;SDS011;62813;51.424;6.762;2023-03-01T15:18:33;9.60;;;7.60;;
9007;SDS011;62813;51.424;6.762;2023-03-01T15:21:35;10.50;;;7.10;;
9007;SDS011;62813;51.424;6.762;2023-03-01T15:24:07;12.50;;;7.50;;
9007;SDS011;62813;51.424;6.762;2023-03-01T15:26:56;8.93;;;7.40;;
9007;SDS011;62813;51.424;6.762;2023-03-01T15:29:33;10.57;;;6.70;;
9007;SDS011;62813;51.424;6.762;2023-03-01T15:32:22;11.53;;;7.27;;
9007;SDS011;62813;51.424;6.762;2023-03-01T15:34:59;12.57;;;7.57;;
9007;SDS011;62813;51.424;6.762;2023-03-01T15:37:40;10.10;;;6.90;;
9007;SDS011;62813;51.424;6.762;2023-03-01T15:42:47;9.03;;;7.33;;
9007;SDS011;62813;51.424;6.762;2023-03-01T15:47:52;9.97;;;5.83;;
9007;SDS011;62813;51.424;6.762;2023-03-01T15:50:31;12.10;;;7.33;;
9007;SDS011;62813;51.424;6.762;2023-03-01T15:53:00;10.73;;;6.90;;
9007;SDS011;62813;51.424;6.762;2023-03-01T15:55:31;9.43;;;5.97;;
9007;SDS011;62813;51.424;6.762;2023-03-01T15:58:00;9.67;;;6.47;;
9007;SDS011;62813;51.424;6.762;2023-03-01T16:00:33;10.80;;;6.67;;
9007;SDS011;62813;51.424;6.762;2023-03-01T16:03:01;9.30;;;6.67;;
9007;SDS011;62813;51.424;6.762;2023-03-01T16:05:28;10.20;;;6.97;;
9007;SDS011;62813;51.424;6.762;2023-03-01T16:07:56;11.53;;;7.47;;
9007;SDS011;62813;51.424;6.762;2023-03-01T16:10:23;9.03;;;6.33;;
9007;SDS011;62813;51.424;6.762;2023-03-01T16:12:51;9.60;;;6.67;;
9007;SDS011;62813;51.424;6.762;2023-03-01T16:15:20;10.03;;;6.80;;
9007;SDS011;62813;51.424;6.762;2023-03-01T16:17:50;9.03;;;6.77;;
9007;SDS011;62813;51.424;6.762;2023-03-01T16:20:18;9.33;;;6.63;;
9007;SDS011;62813;51.424;6.762;2023-03-01T16:22:53;10.47;;;6.20;;
9007;SDS011;62813;51.424;6.762;2023-03-01T16:25:20;13.53;;;6.73;;
9007;SDS011;62813;51.424;6.762;2023-03-01T16:27:48;8.57;;;6.57;;
9007;SDS011;62813;51.424;6.762;2023-03-01T16:30:17;11.03;;;6.20;;
9007;SDS011;62813;51.424;6.762;2023-03-01T16:32:46;9.87;;;6.70;;
9007;SDS011;62813;51.424;6.762;2023-03-01T16:35:16;10.03;;;6.50;;
9007;SDS011;62813;51.424;6.762;2023-03-01T16:37:45;9.87;;;5.80;;
9007;SDS011;62813;51.424;6.762;2023-03-01T16:40:19;6.80;;;5.83;;
9007;SDS011;62813;51.424;6.762;2023-03-01T16:42:47;8.67;;;6.33;;
9007;SDS011;62813;51.424;6.762;2023-03-01T16:45:15;10.87;;;6.37;;
9007;SDS011;62813;51.424;6.762;2023-03-01T16:47:50;10.83;;;6.27;;
9007;SDS011;62813;51.424;6.762;2023-03-01T16:50:21;8.47;;;6.10;;
9007;SDS011;62813;51.424;6.762;2023-03-01T16:52:48;10.10;;;6.23;;
9007;SDS011;62813;51.424;6.762;2023-03-01T16:55:14;8.80;;;6.03;;
9007;SDS011;62813;51.424;6.762;2023-03-01T16:57:41;15.60;;;5.93;;
9007;SDS011;62813;51.424;6.762;2023-03-01T17:00:08;8.03;;;5.87;;
9007;SDS011;62813;51.424;6.762;2023-03-01T17:02:37;13.07;;;6.37;;
9007;SDS011;62813;51.424;6.762;2023-03-01T17:05:04;10.77;;;5.77;;
9007;SDS011;62813;51.424;6.762;2023-03-01T17:07:32;11.93;;;6.53;;
9007;SDS011;62813;51.424;6.762;2023-03-01T17:10:02;10.10;;;6.50;;
9007;SDS011;62813;51.424;6.762;2023-03-01T17:12:30;11.37;;;6.67;;
9007;SDS011;62813;51.424;6.762;2023-03-01T17:14:58;8.63;;;6.37;;
9007;SDS011;62813;51.424;6.762;2023-03-01T17:17:24;12.00;;;6.40;;
9007;SDS011;62813;51.424;6.762;2023-03-01T17:19:51;8.10;;;6.10;;